sensor_id;sensor_type;location;lat;lon;timestamp;pressure;altitude;pressure_sealevel;temperature;humidity
18167;BME280;9208;42.688;23.404;2022-12-07T00:00:54;95493.56;;;7.79;100.00
18167;BME280;9208;42.688;23.404;2022-12-07T00:03:20;95488.88;;;7.80;100.00
18167;BME280;9208;42.688;23.404;2022-12-07T00:05:45;95486.28;;;7.76;100.00
18167;BME280;9208;42.688;23.404;2022-12-07T00:08:10;95483.41;;;7.80;100.00
18167;BME280;9208;42.688;23.404;2022-12-07T00:10:36;95493.28;;;7.77;100.00
18167;BME280;9208;42.688;23.404;2022-12-07T00:13:01;95485.19;;;7.83;100.00
18167;BME280;9208;42.688;23.404;2022-12-07T00:15:27;95479.91;;;7.79;100.00
18167;BME280;9208;42.688;23.404;2022-12-07T00:17:52;95478.06;;;7.85;100.00
18167;BME280;9208;42.688;23.404;2022-12-07T00:20:18;95477.00;;;7.83;100.00
18167;BME280;9208;42.688;23.404;2022-12-07T00:22:43;95474.00;;;7.81;100.00
18167;BME280;9208;42.688;23.404;2022-12-07T00:25:09;95478.06;;;7.85;100.00
18167;BME280;9208;42.688;23.404;2022-12-07T00:27:34;95483.53;;;7.85;100.00
18167;BME280;9208;42.688;23.404;2022-12-07T00:29:59;95481.88;;;7.79;100.00
18167;BME280;9208;42.688;23.404;2022-12-07T00:32:25;95479.47;;;7.81;100.00
18167;BME280;9208;42.688;23.404;2022-12-07T00:34:51;95476.56;;;7.84;100.00
18167;BME280;9208;42.688;23.404;2022-12-07T00:37:16;95482.66;;;7.70;100.00
18167;BME280;9208;42.688;23.404;2022-12-07T00:39:42;95494.78;;;7.78;100.00
18167;BME280;9208;42.688;23.404;2022-12-07T00:42:07;95497.19;;;7.76;100.00
18167;BME280;9208;42.688;23.404;2022-12-07T00:44:32;95492.06;;;7.69;100.00
18167;BME280;9208;42.688;23.404;2022-12-07T00:46:58;95484.50;;;7.64;100.00
18167;BME280;9208;42.688;23.404;2022-12-07T00:49:23;95482.06;;;7.66;100.00
18167;BME280;9208;42.688;23.404;2022-12-07T00:51:49;95479.31;;;7.75;100.00
18167;BME280;9208;42.688;23.404;2022-12-07T00:54:14;95471.91;;;7.67;100.00
18167;BME280;9208;42.688;23.404;2022-12-07T00:56:40;95471.59;;;7.65;100.00
18167;BME280;9208;42.688;23.404;2022-12-07T00:59:05;95469.63;;;7.65;100.00
18167;BME280;9208;42.688;23.404;2022-12-07T01:01:33;95472.97;;;7.69;100.00
18167;BME280;9208;42.688;23.404;2022-12-07T01:04:00;95470.84;;;7.73;100.00
18167;BME280;9208;42.688;23.404;2022-12-07T01:06:29;95457.19;;;7.73;100.00
18167;BME280;9208;42.688;23.404;2022-12-07T01:08:54;95465.50;;;7.70;100.00
18167;BME280;9208;42.688;23.404;2022-12-07T01:11:22;95462.34;;;7.71;100.00
18167;BME280;9208;42.688;23.404;2022-12-07T01:13:53;95465.50;;;7.70;100.00
18167;BME280;9208;42.688;23.404;2022-12-07T01:16:19;95468.16;;;7.55;100.00
18167;BME280;9208;42.688;23.404;2022-12-07T01:18:48;95477.50;;;7.54;100.00
18167;BME280;9208;42.688;23.404;2022-12-07T01:21:23;95466.78;;;7.51;100.00
18167;BME280;9208;42.688;23.404;2022-12-07T01:23:49;95460.25;;;7.48;100.00
18167;BME280;9208;42.688;23.404;2022-12-07T01:26:19;95471.47;;;7.50;100.00
18167;BME280;9208;42.688;23.404;2022-12-07T01:28:46;95460.53;;;7.50;100.00
18167;BME280;9208;42.688;23.404;2022-12-07T01:31:13;95450.84;;;7.49;100.00
18167;BME280;9208;42.688;23.404;2022-12-07T01:33:44;95454.03;;;7.48;100.00
18167;BME280;9208;42.688;23.404;2022-12-07T01:36:20;95457.53;;;7.48;100.00
18167;BME280;9208;42.688;23.404;2022-12-07T01:38:48;95452.84;;;7.49;100.00
18167;BME280;9208;42.688;23.404;2022-12-07T01:41:17;95453.91;;;7.51;100.00
18167;BME280;9208;42.688;23.404;2022-12-07T01:44:14;95451.00;;;7.55;100.00
18167;BME280;9208;42.688;23.404;2022-12-07T01:46:42;95459.03;;;7.58;100.00
18167;BME280;9208;42.688;23.404;2022-12-07T01:49:11;95456.16;;;7.62;100.00
18167;BME280;9208;42.688;23.404;2022-12-07T01:51:40;95457.50;;;7.57;100.00
18167;BME280;9208;42.688;23.404;2022-12-07T01:54:11;95453.88;;;7.60;100.00
18167;BME280;9208;42.688;23.404;2022-12-07T01:56:40;95450.81;;;7.67;100.00
18167;BME280;9208;42.688;23.404;2022-12-07T01:59:07;95445.69;;;7.69;100.00
18167;BME280;9208;42.688;23.404;2022-12-07T02:01:33;95444.47;;;7.70;100.00
18167;BME280;9208;42.688;23.404;2022-12-07T02:03:58;95438.53;;;7.72;100.00
18167;BME280;9208;42.688;23.404;2022-12-07T02:06:25;95437.50;;;7.69;100.00
18167;BME280;9208;42.688;23.404;2022-12-07T02:08:51;95429.75;;;7.68;100.00
18167;BME280;9208;42.688;23.404;2022-12-07T02:11:17;95433.22;;;7.77;100.00
18167;BME280;9208;42.688;23.404;2022-12-07T02:13:45;95433.38;;;7.74;100.00
18167;BME280;9208;42.688;23.404;2022-12-07T02:21:56;95439.03;;;7.61;100.00
18167;BME280;9208;42.688;23.404;2022-12-07T02:30:12;95421.00;;;7.55;100.00
18167;BME280;9208;42.688;23.404;2022-12-07T02:32:54;95420.22;;;7.54;100.00
18167;BME280;9208;42.688;23.404;2022-12-07T02:38:09;95426.63;;;7.51;100.00
18167;BME280;9208;42.688;23.404;2022-12-07T02:43:30;95414.03;;;7.54;100.00
18167;BME280;9208;42.688;23.404;2022-12-07T02:46:07;95420.56;;;7.56;100.00
18167;BME280;9208;42.688;23.404;2022-12-07T02:48:35;95417.66;;;7.60;100.00
18167;BME280;9208;42.688;23.404;2022-12-07T02:51:02;95423.72;;;7.55;100.00
18167;BME280;9208;42.688;23.404;2022-12-07T02:55:59;95423.28;;;7.56;100.00
18167;BME280;9208;42.688;23.404;2022-12-07T03:01:41;95414.78;;;7.54;100.00
18167;BME280;9208;42.688;23.404;2022-12-07T03:06:51;95409.50;;;7.51;100.00
18167;BME280;9208;42.688;23.404;2022-12-07T03:09:34;95414.97;;;7.42;100.00
18167;BME280;9208;42.688;23.404;2022-12-07T03:12:08;95406.19;;;7.38;100.00
18167;BME280;9208;42.688;23.404;2022-12-07T03:14:41;95392.09;;;7.39;100.00
18167;BME280;9208;42.688;23.404;2022-12-07T03:17:17;95400.25;;;7.48;100.00
18167;BME280;9208;42.688;23.404;2022-12-07T03:19:46;95398.59;;;7.51;100.00
18167;BME280;9208;42.688;23.404;2022-12-07T03:22:14;95402.50;;;7.59;100.00
18167;BME280;9208;42.688;23.404;2022-12-07T03:25:03;95396.28;;;7.58;100.00
18167;BME280;9208;42.688;23.404;2022-12-07T03:27:35;95397.03;;;7.68;100.00
18167;BME280;9208;42.688;23.404;2022-12-07T03:30:06;95395.66;;;7.63;100.00
18167;BME280;9208;42.688;23.404;2022-12-07T03:32:40;95393.56;;;7.58;100.00
18167;BME280;9208;42.688;23.404;2022-12-07T03:40:26;95405.72;;;7.48;100.00
18167;BME280;9208;42.688;23.404;2022-12-07T03:42:55;95409.53;;;7.33;100.00
18167;BME280;9208;42.688;23.404;2022-12-07T03:45:32;95404.53;;;7.22;100.00
18167;BME280;9208;42.688;23.404;2022-12-07T03:48:27;95403.03;;;7.21;100.00
18167;BME280;9208;42.688;23.404;2022-12-07T03:51:24;95404.25;;;7.29;100.00
18167;BME280;9208;42.688;23.404;2022-12-07T03:54:02;95403.63;;;7.25;100.00
18167;BME280;9208;42.688;23.404;2022-12-07T03:56:33;95400.03;;;7.19;100.00
18167;BME280;9208;42.688;23.404;2022-12-07T03:58:59;95401.19;;;7.27;100.00
18167;BME280;9208;42.688;23.404;2022-12-07T04:01:24;95393.63;;;7.22;100.00
18167;BME280;9208;42.688;23.404;2022-12-07T04:03:50;95395.31;;;7.20;100.00
18167;BME280;9208;42.688;23.404;2022-12-07T04:06:16;95394.84;;;7.30;100.00
18167;BME280;9208;42.688;23.404;2022-12-07T04:08:41;95395.59;;;7.31;100.00
18167;BME280;9208;42.688;23.404;2022-12-07T04:11:07;95393.78;;;7.28;100.00
18167;BME280;9208;42.688;23.404;2022-12-07T04:13:32;95385.78;;;7.24;100.00
18167;BME280;9208;42.688;23.404;2022-12-07T04:16:18;95386.38;;;7.28;100.00
18167;BME280;9208;42.688;23.404;2022-12-07T04:18:43;95386.22;;;7.32;100.00
18167;BME280;9208;42.688;23.404;2022-12-07T04:21:08;95388.63;;;7.21;100.00
18167;BME280;9208;42.688;23.404;2022-12-07T04:23:34;95383.19;;;7.21;100.00
18167;BME280;9208;42.688;23.404;2022-12-07T04:25:59;95383.38;;;7.08;100.00
18167;BME280;9208;42.688;23.404;2022-12-07T04:28:25;95372.00;;;7.01;100.00
18167;BME280;9208;42.688;23.404;2022-12-07T04:30:50;95390.47;;;7.06;100.00
18167;BME280;9208;42.688;23.404;2022-12-07T04:33:16;95392.59;;;7.11;100.00
18167;BME280;9208;42.688;23.404;2022-12-07T04:35:42;95395.94;;;7.15;100.00
18167;BME280;9208;42.688;23.404;2022-12-07T04:38:08;95397.31;;;7.10;100.00
18167;BME280;9208;42.688;23.404;2022-12-07T04:40:34;95392.75;;;7.07;100.00
18167;BME280;9208;42.688;23.404;2022-12-07T04:42:59;95394.09;;;7.12;100.00
18167;BME280;9208;42.688;23.404;2022-12-07T04:45:25;95396.69;;;7.06;100.00
18167;BME280;9208;42.688;23.404;2022-12-07T04:47:50;95395.78;;;7.00;100.00
18167;BME280;9208;42.688;23.404;2022-12-07T04:50:15;95409.28;;;6.95;100.00
18167;BME280;9208;42.688;23.404;2022-12-07T04:52:41;95404.88;;;6.88;100.00
18167;BME280;9208;42.688;23.404;2022-12-07T04:55:07;95405.78;;;6.85;100.00
18167;BME280;9208;42.688;23.404;2022-12-07T04:57:32;95402.78;;;6.83;100.00
18167;BME280;9208;42.688;23.404;2022-12-07T04:59:58;95397.91;;;6.78;100.00
18167;BME280;9208;42.688;23.404;2022-12-07T05:02:23;95403.06;;;6.85;100.00
18167;BME280;9208;42.688;23.404;2022-12-07T05:04:51;95398.50;;;6.91;100.00
18167;BME280;9208;42.688;23.404;2022-12-07T05:07:16;95407.44;;;7.01;100.00
18167;BME280;9208;42.688;23.404;2022-12-07T05:09:42;95399.28;;;7.01;100.00
18167;BME280;9208;42.688;23.404;2022-12-07T05:12:07;95406.69;;;7.00;100.00
18167;BME280;9208;42.688;23.404;2022-12-07T05:14:33;95396.72;;;6.88;100.00
18167;BME280;9208;42.688;23.404;2022-12-07T05:16:58;95412.63;;;6.81;100.00
18167;BME280;9208;42.688;23.404;2022-12-07T05:19:23;95405.34;;;6.78;100.00
18167;BME280;9208;42.688;23.404;2022-12-07T05:21:49;95397.16;;;6.69;100.00
18167;BME280;9208;42.688;23.404;2022-12-07T05:24:15;95403.34;;;6.60;100.00
18167;BME280;9208;42.688;23.404;2022-12-07T05:26:42;95402.59;;;6.60;100.00
18167;BME280;9208;42.688;23.404;2022-12-07T05:29:14;95394.72;;;6.53;100.00
18167;BME280;9208;42.688;23.404;2022-12-07T05:31:39;95395.31;;;6.57;100.00
18167;BME280;9208;42.688;23.404;2022-12-07T05:34:05;95402.75;;;6.56;100.00
18167;BME280;9208;42.688;23.404;2022-12-07T05:36:30;95401.69;;;6.54;100.00
18167;BME280;9208;42.688;23.404;2022-12-07T05:38:57;95401.50;;;6.39;100.00
18167;BME280;9208;42.688;23.404;2022-12-07T05:41:23;95406.34;;;6.35;100.00
18167;BME280;9208;42.688;23.404;2022-12-07T05:44:07;95405.72;;;6.31;100.00
18167;BME280;9208;42.688;23.404;2022-12-07T05:46:33;95406.16;;;6.30;100.00
18167;BME280;9208;42.688;23.404;2022-12-07T05:48:58;95409.31;;;6.19;100.00
18167;BME280;9208;42.688;23.404;2022-12-07T05:51:24;95405.09;;;6.18;100.00
18167;BME280;9208;42.688;23.404;2022-12-07T05:53:49;95398.41;;;6.10;100.00
18167;BME280;9208;42.688;23.404;2022-12-07T05:56:15;95401.00;;;6.14;100.00
18167;BME280;9208;42.688;23.404;2022-12-07T05:58:40;95394.03;;;6.13;100.00
18167;BME280;9208;42.688;23.404;2022-12-07T06:01:24;95394.03;;;6.13;100.00
18167;BME280;9208;42.688;23.404;2022-12-07T06:03:50;95393.94;;;6.25;100.00
18167;BME280;9208;42.688;23.404;2022-12-07T06:06:18;95397.13;;;6.33;100.00
18167;BME280;9208;42.688;23.404;2022-12-07T06:08:43;95393.03;;;6.37;100.00
18167;BME280;9208;42.688;23.404;2022-12-07T06:11:09;95391.53;;;6.36;100.00
18167;BME280;9208;42.688;23.404;2022-12-07T06:13:53;95383.06;;;6.43;100.00
18167;BME280;9208;42.688;23.404;2022-12-07T06:16:19;95399.09;;;6.41;100.00
18167;BME280;9208;42.688;23.404;2022-12-07T06:18:44;95390.63;;;6.39;100.00
18167;BME280;9208;42.688;23.404;2022-12-07T06:21:09;95406.03;;;6.42;100.00
18167;BME280;9208;42.688;23.404;2022-12-07T06:23:35;95410.28;;;6.43;100.00
18167;BME280;9208;42.688;23.404;2022-12-07T06:26:00;95402.56;;;6.42;100.00
18167;BME280;9208;42.688;23.404;2022-12-07T06:28:26;95399.41;;;6.52;100.00
18167;BME280;9208;42.688;23.404;2022-12-07T06:30:58;95398.06;;;6.57;100.00
18167;BME280;9208;42.688;23.404;2022-12-07T06:33:24;95396.38;;;6.59;100.00
18167;BME280;9208;42.688;23.404;2022-12-07T06:35:49;95394.44;;;6.69;100.00
18167;BME280;9208;42.688;23.404;2022-12-07T06:38:15;95405.16;;;6.72;100.00
18167;BME280;9208;42.688;23.404;2022-12-07T06:40:40;95414.41;;;6.66;100.00
18167;BME280;9208;42.688;23.404;2022-12-07T06:43:06;95409.09;;;6.62;100.00
18167;BME280;9208;42.688;23.404;2022-12-07T06:45:31;95410.63;;;6.72;100.00
18167;BME280;9208;42.688;23.404;2022-12-07T06:47:56;95414.25;;;6.78;100.00
18167;BME280;9208;42.688;23.404;2022-12-07T06:50:22;95415.91;;;6.85;100.00
18167;BME280;9208;42.688;23.404;2022-12-07T06:52:47;95416.97;;;6.87;100.00
18167;BME280;9208;42.688;23.404;2022-12-07T06:55:13;95410.00;;;6.77;100.00
18167;BME280;9208;42.688;23.404;2022-12-07T06:57:38;95417.59;;;6.82;100.00
18167;BME280;9208;42.688;23.404;2022-12-07T07:00:04;95415.47;;;6.86;100.00
18167;BME280;9208;42.688;23.404;2022-12-07T07:02:30;95413.06;;;6.88;100.00
18167;BME280;9208;42.688;23.404;2022-12-07T07:04:55;95407.91;;;6.90;100.00
18167;BME280;9208;42.688;23.404;2022-12-07T07:07:20;95422.13;;;6.94;100.00
18167;BME280;9208;42.688;23.404;2022-12-07T07:09:46;95413.81;;;6.89;100.00
18167;BME280;9208;42.688;23.404;2022-12-07T07:12:12;95415.19;;;6.93;100.00
18167;BME280;9208;42.688;23.404;2022-12-07T07:14:38;95411.06;;;6.98;100.00
18167;BME280;9208;42.688;23.404;2022-12-07T07:17:03;95411.38;;;7.00;100.00
18167;BME280;9208;42.688;23.404;2022-12-07T07:19:28;95418.63;;;7.03;100.00
18167;BME280;9208;42.688;23.404;2022-12-07T07:21:54;95424.09;;;7.03;100.00
18167;BME280;9208;42.688;23.404;2022-12-07T07:24:19;95422.13;;;7.03;100.00
18167;BME280;9208;42.688;23.404;2022-12-07T07:26:45;95426.06;;;7.11;100.00
18167;BME280;9208;42.688;23.404;2022-12-07T07:29:10;95425.63;;;7.13;100.00
18167;BME280;9208;42.688;23.404;2022-12-07T07:31:36;95422.72;;;7.16;100.00
18167;BME280;9208;42.688;23.404;2022-12-07T07:34:02;95428.19;;;7.25;100.00
18167;BME280;9208;42.688;23.404;2022-12-07T07:36:27;95431.66;;;7.26;100.00
18167;BME280;9208;42.688;23.404;2022-12-07T07:38:55;95423.19;;;7.24;100.00
18167;BME280;9208;42.688;23.404;2022-12-07T07:41:21;95433.00;;;7.30;100.00
18167;BME280;9208;42.688;23.404;2022-12-07T07:43:46;95422.88;;;7.31;100.00
18167;BME280;9208;42.688;23.404;2022-12-07T07:46:12;95434.97;;;7.39;100.00
18167;BME280;9208;42.688;23.404;2022-12-07T07:48:37;95434.22;;;7.38;100.00
18167;BME280;9208;42.688;23.404;2022-12-07T07:51:07;95431.78;;;7.31;100.00
18167;BME280;9208;42.688;23.404;2022-12-07T07:53:33;95428.47;;;7.27;100.00
18167;BME280;9208;42.688;23.404;2022-12-07T07:55:58;95421.50;;;7.26;100.00
18167;BME280;9208;42.688;23.404;2022-12-07T07:58:24;95424.97;;;7.36;100.00
18167;BME280;9208;42.688;23.404;2022-12-07T08:00:49;95427.84;;;7.41;100.00
18167;BME280;9208;42.688;23.404;2022-12-07T08:03:15;95422.25;;;7.45;100.00
18167;BME280;9208;42.688;23.404;2022-12-07T08:05:40;95420.72;;;7.44;100.00
18167;BME280;9208;42.688;23.404;2022-12-07T08:08:06;95420.84;;;7.49;100.00
18167;BME280;9208;42.688;23.404;2022-12-07T08:10:32;95420.22;;;7.54;100.00
18167;BME280;9208;42.688;23.404;2022-12-07T08:12:58;95420.22;;;7.54;100.00
18167;BME280;9208;42.688;23.404;2022-12-07T08:15:37;95420.84;;;7.58;100.00
18167;BME280;9208;42.688;23.404;2022-12-07T08:18:03;95425.56;;;7.58;100.00
18167;BME280;9208;42.688;23.404;2022-12-07T08:20:32;95421.84;;;7.70;100.00
18167;BME280;9208;42.688;23.404;2022-12-07T08:22:58;95418.81;;;7.77;100.00
18167;BME280;9208;42.688;23.404;2022-12-07T08:25:25;95420.63;;;7.80;100.00
18167;BME280;9208;42.688;23.404;2022-12-07T08:27:51;95422.16;;;7.81;100.00
18167;BME280;9208;42.688;23.404;2022-12-07T08:30:17;95423.78;;;7.87;100.00
18167;BME280;9208;42.688;23.404;2022-12-07T08:32:44;95429.06;;;7.91;100.00
18167;BME280;9208;42.688;23.404;2022-12-07T08:35:10;95421.31;;;7.98;100.00
18167;BME280;9208;42.688;23.404;2022-12-07T08:37:36;95421.44;;;8.04;100.00
18167;BME280;9208;42.688;23.404;2022-12-07T08:40:02;95420.63;;;8.12;100.00
18167;BME280;9208;42.688;23.404;2022-12-07T08:42:28;95415.03;;;8.16;100.00
18167;BME280;9208;42.688;23.404;2022-12-07T08:44:57;95415.47;;;8.23;100.00
18167;BME280;9208;42.688;23.404;2022-12-07T08:47:24;95412.75;;;8.23;100.00
18167;BME280;9208;42.688;23.404;2022-12-07T08:49:51;95407.88;;;8.27;100.00
18167;BME280;9208;42.688;23.404;2022-12-07T08:52:17;95403.72;;;8.32;100.00
18167;BME280;9208;42.688;23.404;2022-12-07T08:54:43;95400.53;;;8.33;100.00
18167;BME280;9208;42.688;23.404;2022-12-07T08:57:10;95405.38;;;8.38;100.00
18167;BME280;9208;42.688;23.404;2022-12-07T08:59:37;95393.06;;;8.43;100.00
18167;BME280;9208;42.688;23.404;2022-12-07T09:02:05;95398.53;;;8.43;100.00
18167;BME280;9208;42.688;23.404;2022-12-07T09:04:31;95393.16;;;8.48;100.00
18167;BME280;9208;42.688;23.404;2022-12-07T09:06:56;95385.53;;;8.52;100.00
18167;BME280;9208;42.688;23.404;2022-12-07T09:09:22;95387.38;;;8.55;100.00
18167;BME280;9208;42.688;23.404;2022-12-07T09:11:48;95384.25;;;8.62;100.00
18167;BME280;9208;42.688;23.404;2022-12-07T09:14:13;95392.13;;;8.69;100.00
18167;BME280;9208;42.688;23.404;2022-12-07T09:16:39;95387.81;;;8.77;100.00
18167;BME280;9208;42.688;23.404;2022-12-07T09:19:04;95383.84;;;8.78;100.00
18167;BME280;9208;42.688;23.404;2022-12-07T09:21:30;95380.66;;;8.80;100.00
18167;BME280;9208;42.688;23.404;2022-12-07T09:23:55;95373.31;;;8.86;100.00
18167;BME280;9208;42.688;23.404;2022-12-07T09:26:21;95372.00;;;8.96;100.00
18167;BME280;9208;42.688;23.404;2022-12-07T09:28:47;95373.91;;;9.04;100.00
18167;BME280;9208;42.688;23.404;2022-12-07T09:31:12;95374.75;;;9.10;100.00
18167;BME280;9208;42.688;23.404;2022-12-07T09:33:37;95378.84;;;9.15;100.00
18167;BME280;9208;42.688;23.404;2022-12-07T09:36:03;95375.91;;;9.18;100.00
18167;BME280;9208;42.688;23.404;2022-12-07T09:38:29;95362.03;;;9.22;100.00
18167;BME280;9208;42.688;23.404;2022-12-07T09:41:04;95364.31;;;9.23;100.00
18167;BME280;9208;42.688;23.404;2022-12-07T09:43:30;95351.41;;;9.24;100.00
18167;BME280;9208;42.688;23.404;2022-12-07T09:45:56;95353.19;;;9.27;100.00
18167;BME280;9208;42.688;23.404;2022-12-07T09:48:36;95341.50;;;9.26;100.00
18167;BME280;9208;42.688;23.404;2022-12-07T09:53:39;95347.16;;;9.37;100.00
18167;BME280;9208;42.688;23.404;2022-12-07T09:56:05;95344.16;;;9.35;100.00
18167;BME280;9208;42.688;23.404;2022-12-07T09:58:32;95340.19;;;9.36;100.00
18167;BME280;9208;42.688;23.404;2022-12-07T10:01:01;95338.75;;;9.41;100.00
18167;BME280;9208;42.688;23.404;2022-12-07T10:03:30;95343.59;;;9.46;100.00
18167;BME280;9208;42.688;23.404;2022-12-07T10:05:56;95337.44;;;9.51;100.00
18167;BME280;9208;42.688;23.404;2022-12-07T10:08:22;95337.97;;;9.69;100.00
18167;BME280;9208;42.688;23.404;2022-12-07T10:10:55;95333.72;;;9.83;100.00
18167;BME280;9208;42.688;23.404;2022-12-07T10:13:48;95329.28;;;9.85;100.00
18167;BME280;9208;42.688;23.404;2022-12-07T10:16:46;95325.75;;;9.85;100.00
18167;BME280;9208;42.688;23.404;2022-12-07T10:19:25;95329.47;;;9.82;100.00
18167;BME280;9208;42.688;23.404;2022-12-07T10:24:34;95315.22;;;9.78;100.00
18167;BME280;9208;42.688;23.404;2022-12-07T10:26:59;95304.84;;;9.82;100.00
18167;BME280;9208;42.688;23.404;2022-12-07T10:29:30;95308.59;;;9.84;100.00
18167;BME280;9208;42.688;23.404;2022-12-07T10:32:00;95295.44;;;9.88;100.00
18167;BME280;9208;42.688;23.404;2022-12-07T10:34:34;95296.50;;;9.91;100.00
18167;BME280;9208;42.688;23.404;2022-12-07T10:44:49;95290.09;;;9.79;100.00
18167;BME280;9208;42.688;23.404;2022-12-07T10:47:34;95290.16;;;9.85;100.00
18167;BME280;9208;42.688;23.404;2022-12-07T10:53:26;95288.56;;;9.93;100.00
18167;BME280;9208;42.688;23.404;2022-12-07T10:56:20;95280.13;;;9.96;100.00
18167;BME280;9208;42.688;23.404;2022-12-07T11:12:46;95249.78;;;10.14;100.00
18167;BME280;9208;42.688;23.404;2022-12-07T11:15:33;95245.75;;;10.10;100.00
18167;BME280;9208;42.688;23.404;2022-12-07T11:18:14;95243.69;;;10.05;100.00
18167;BME280;9208;42.688;23.404;2022-12-07T11:26:23;95225.53;;;10.27;100.00
18167;BME280;9208;42.688;23.404;2022-12-07T11:29:24;95235.66;;;10.42;100.00
18167;BME280;9208;42.688;23.404;2022-12-07T11:37:18;95205.16;;;10.54;100.00
18167;BME280;9208;42.688;23.404;2022-12-07T11:39:55;95207.38;;;10.56;100.00
18167;BME280;9208;42.688;23.404;2022-12-07T11:42:26;95211.16;;;10.58;100.00
18167;BME280;9208;42.688;23.404;2022-12-07T11:44:59;95205.31;;;10.71;100.00
18167;BME280;9208;42.688;23.404;2022-12-07T11:47:34;95205.09;;;10.74;100.00
18167;BME280;9208;42.688;23.404;2022-12-07T11:54:54;95199.44;;;10.83;100.00
18167;BME280;9208;42.688;23.404;2022-12-07T11:57:44;95200.69;;;10.82;100.00
18167;BME280;9208;42.688;23.404;2022-12-07T12:00:16;95197.41;;;10.78;100.00
18167;BME280;9208;42.688;23.404;2022-12-07T12:02:53;95195.69;;;10.81;100.00
18167;BME280;9208;42.688;23.404;2022-12-07T12:05:22;95191.38;;;10.74;100.00
18167;BME280;9208;42.688;23.404;2022-12-07T12:08:16;95189.88;;;10.73;100.00
18167;BME280;9208;42.688;23.404;2022-12-07T12:10:52;95181.19;;;10.75;100.00
18167;BME280;9208;42.688;23.404;2022-12-07T12:19:30;95166.41;;;10.67;100.00
18167;BME280;9208;42.688;23.404;2022-12-07T12:22:27;95166.13;;;10.65;100.00
18167;BME280;9208;42.688;23.404;2022-12-07T12:24:56;95170.38;;;10.66;100.00
18167;BME280;9208;42.688;23.404;2022-12-07T12:27:27;95169.69;;;10.71;100.00
18167;BME280;9208;42.688;23.404;2022-12-07T12:29:59;95167.66;;;10.71;100.00
18167;BME280;9208;42.688;23.404;2022-12-07T12:32:45;95166.66;;;10.69;100.00
18167;BME280;9208;42.688;23.404;2022-12-07T12:35:28;95159.41;;;10.66;100.00
18167;BME280;9208;42.688;23.404;2022-12-07T12:40:49;95160.22;;;10.72;100.00
18167;BME280;9208;42.688;23.404;2022-12-07T12:43:51;95141.00;;;10.72;100.00
18167;BME280;9208;42.688;23.404;2022-12-07T12:52:45;95145.84;;;10.82;100.00
18167;BME280;9208;42.688;23.404;2022-12-07T12:54:34;95141.16;;;10.88;100.00
18167;BME280;9208;42.688;23.404;2022-12-07T13:02:21;95133.22;;;10.96;100.00
18167;BME280;9208;42.688;23.404;2022-12-07T13:04:55;95143.22;;;10.99;100.00
18167;BME280;9208;42.688;23.404;2022-12-07T13:15:52;95151.03;;;11.06;100.00
18167;BME280;9208;42.688;23.404;2022-12-07T13:23:22;95136.13;;;11.18;100.00
18167;BME280;9208;42.688;23.404;2022-12-07T13:26:01;95134.94;;;11.24;100.00
18167;BME280;9208;42.688;23.404;2022-12-07T13:28:36;95135.47;;;11.28;100.00
18167;BME280;9208;42.688;23.404;2022-12-07T13:34:27;95137.25;;;11.37;100.00
18167;BME280;9208;42.688;23.404;2022-12-07T13:36:51;95130.78;;;11.40;100.00
18167;BME280;9208;42.688;23.404;2022-12-07T13:39:20;95128.31;;;11.42;100.00
18167;BME280;9208;42.688;23.404;2022-12-07T13:41:52;95128.06;;;11.45;100.00
18167;BME280;9208;42.688;23.404;2022-12-07T13:44:18;95127.59;;;11.47;100.00
18167;BME280;9208;42.688;23.404;2022-12-07T13:47:06;95127.31;;;11.45;100.00
18167;BME280;9208;42.688;23.404;2022-12-07T13:49:38;95128.31;;;11.42;100.00
18167;BME280;9208;42.688;23.404;2022-12-07T13:52:27;95123.31;;;11.46;100.00
18167;BME280;9208;42.688;23.404;2022-12-07T13:57:30;95121.09;;;11.50;100.00
18167;BME280;9208;42.688;23.404;2022-12-07T13:59:57;95119.88;;;11.51;100.00
18167;BME280;9208;42.688;23.404;2022-12-07T14:02:31;95120.63;;;11.51;100.00
18167;BME280;9208;42.688;23.404;2022-12-07T14:05:12;95126.38;;;11.53;100.00
18167;BME280;9208;42.688;23.404;2022-12-07T14:08:06;95125.63;;;11.53;100.00
18167;BME280;9208;42.688;23.404;2022-12-07T14:13:36;95129.88;;;11.54;100.00
18167;BME280;9208;42.688;23.404;2022-12-07T14:16:22;95127.13;;;11.54;100.00
18167;BME280;9208;42.688;23.404;2022-12-07T14:18:48;95125.88;;;11.55;100.00
18167;BME280;9208;42.688;23.404;2022-12-07T14:23:40;95129.44;;;11.61;100.00
18167;BME280;9208;42.688;23.404;2022-12-07T14:26:14;95140.66;;;11.63;100.00
18167;BME280;9208;42.688;23.404;2022-12-07T14:28:40;95132.44;;;11.63;100.00
18167;BME280;9208;42.688;23.404;2022-12-07T14:31:15;95139.19;;;11.62;100.00
18167;BME280;9208;42.688;23.404;2022-12-07T14:33:41;95141.16;;;11.61;100.00
18167;BME280;9208;42.688;23.404;2022-12-07T14:36:11;95141.38;;;11.58;100.00
18167;BME280;9208;42.688;23.404;2022-12-07T14:38:37;95132.88;;;11.56;100.00
18167;BME280;9208;42.688;23.404;2022-12-07T14:41:04;95128.13;;;11.51;100.00
18167;BME280;9208;42.688;23.404;2022-12-07T14:43:49;95122.84;;;11.47;100.00
18167;BME280;9208;42.688;23.404;2022-12-07T14:46:14;95129.31;;;11.44;100.00
18167;BME280;9208;42.688;23.404;2022-12-07T14:48:39;95127.06;;;11.43;100.00
18167;BME280;9208;42.688;23.404;2022-12-07T14:51:05;95127.50;;;11.36;100.00
18167;BME280;9208;42.688;23.404;2022-12-07T14:53:36;95124.25;;;11.32;100.00
18167;BME280;9208;42.688;23.404;2022-12-07T14:56:03;95126.16;;;11.20;100.00
18167;BME280;9208;42.688;23.404;2022-12-07T14:58:30;95133.34;;;11.12;100.00
18167;BME280;9208;42.688;23.404;2022-12-07T15:00:56;95134.28;;;11.04;100.00
18167;BME280;9208;42.688;23.404;2022-12-07T15:03:21;95139.00;;;10.98;100.00
18167;BME280;9208;42.688;23.404;2022-12-07T15:05:47;95142.94;;;10.91;100.00
18167;BME280;9208;42.688;23.404;2022-12-07T15:08:13;95147.59;;;10.85;100.00
18167;BME280;9208;42.688;23.404;2022-12-07T15:10:41;95150.03;;;10.78;100.00